createdAt,value
2022-09-04T00:03:14.613Z,11.32
2022-09-04T00:06:07.361Z,11.30
2022-09-04T00:09:06.913Z,11.29
2022-09-04T00:12:10.133Z,11.29
2022-09-04T00:15:01.360Z,11.28
2022-09-04T00:17:57.972Z,11.23
2022-09-04T00:20:49.901Z,11.20
2022-09-04T00:23:44.542Z,11.15
2022-09-04T00:26:45.006Z,11.10
2022-09-04T00:29:54.183Z,11.02
2022-09-04T00:32:51.285Z,10.97
2022-09-04T00:35:40.521Z,10.89
2022-09-04T00:38:35.531Z,10.80
2022-09-04T00:41:30.781Z,10.71
2022-09-04T00:44:57.826Z,10.63
2022-09-04T00:47:50.920Z,10.52
2022-09-04T00:51:01.725Z,10.41
2022-09-04T00:53:49.969Z,10.34
2022-09-04T00:57:13.833Z,10.26
2022-09-04T01:00:18.203Z,10.17
2022-09-04T01:03:15.507Z,10.07
2022-09-04T01:06:04.349Z,10.01
2022-09-04T01:09:21.816Z,9.98
2022-09-04T01:12:22.184Z,9.99
2022-09-04T01:15:25.432Z,10.00
2022-09-04T01:19:02.568Z,9.98
2022-09-04T01:22:12.970Z,9.97
2022-09-04T01:25:29.138Z,9.96
2022-09-04T01:28:27.540Z,9.96
2022-09-04T01:31:25.228Z,9.92
2022-09-04T01:34:33.888Z,9.90
2022-09-04T01:37:49.747Z,9.88
2022-09-04T01:40:53.169Z,9.83
2022-09-04T01:43:39.502Z,9.81
2022-09-04T01:46:58.107Z,9.81
2022-09-04T01:49:53.339Z,9.80
2022-09-04T01:53:00.820Z,9.78
2022-09-04T01:56:03.851Z,9.76
2022-09-04T01:58:58.408Z,9.71
2022-09-04T02:01:52.983Z,9.62
2022-09-04T02:04:45.257Z,9.58
2022-09-04T02:07:55.943Z,9.54
2022-09-04T02:11:28.180Z,9.52
2022-09-04T02:14:13.858Z,9.46
2022-09-04T02:17:09.089Z,9.39
2022-09-04T02:20:03.665Z,9.29
2022-09-04T02:23:11.255Z,9.15
2022-09-04T02:26:22.468Z,9.06
2022-09-04T02:29:28.475Z,8.97
2022-09-04T02:32:29.334Z,8.87
2022-09-04T02:35:34.898Z,8.79
2022-09-04T02:38:51.602Z,8.75
2022-09-04T02:41:50.380Z,8.66
2022-09-04T02:45:04.665Z,8.60
2022-09-04T02:48:29.377Z,8.52
2022-09-04T02:51:52.419Z,8.45
2022-09-04T02:55:00.221Z,8.42
2022-09-04T02:58:11.685Z,8.43
2022-09-04T03:01:21.776Z,8.39
2022-09-04T03:04:22.241Z,8.38
2022-09-04T03:07:23.950Z,8.32
2022-09-04T03:10:18.498Z,8.30
2022-09-04T03:13:09.875Z,8.26
2022-09-04T03:16:12.465Z,8.24
2022-09-04T03:19:38.882Z,8.20
2022-09-04T03:22:30.379Z,8.18
2022-09-04T03:25:40.497Z,8.15
2022-09-04T03:28:31.142Z,8.16
2022-09-04T03:31:34.874Z,8.21
2022-09-04T03:34:26.130Z,8.21
2022-09-04T03:37:22.536Z,8.23
2022-09-04T03:40:10.300Z,8.27
2022-09-04T03:43:20.508Z,8.29
2022-09-04T03:46:17.585Z,8.33
2022-09-04T03:49:08.807Z,8.39
2022-09-04T03:52:52.483Z,8.45
2022-09-04T03:55:56.641Z,8.54
2022-09-04T03:59:02.647Z,8.67
2022-09-04T04:01:53.460Z,8.79
2022-09-04T04:04:52.079Z,8.94
2022-09-04T04:07:51.175Z,9.07
2022-09-04T04:11:15.644Z,9.25
2022-09-04T04:14:06.896Z,9.39
2022-09-04T04:16:55.906Z,9.55
2022-09-04T04:20:04.928Z,9.73
2022-09-04T04:23:04.706Z,9.92
2022-09-04T04:26:08.160Z,10.10
2022-09-04T04:29:25.328Z,10.29
2022-09-04T04:32:33.211Z,10.47
2022-09-04T04:35:28.005Z,10.64
2022-09-04T04:38:47.336Z,10.82
2022-09-04T04:42:05.117Z,10.99
2022-09-04T04:45:45.035Z,11.21
2022-09-04T04:49:04.693Z,11.36
2022-09-04T04:52:07.984Z,11.48
2022-09-04T04:55:11.472Z,11.63
2022-09-04T04:58:07.255Z,11.76
2022-09-04T05:00:55.819Z,11.95
2022-09-04T05:04:15.601Z,12.10
2022-09-04T05:07:19.071Z,12.30
2022-09-04T05:10:31.227Z,12.49
2022-09-04T05:13:16.186Z,12.68
2022-09-04T05:16:34.214Z,12.88
2022-09-04T05:19:43.395Z,13.03
2022-09-04T05:22:43.120Z,13.12
2022-09-04T05:25:50.582Z,13.25
2022-09-04T05:29:02.855Z,13.39
2022-09-04T05:31:53.249Z,13.55
2022-09-04T05:34:51.300Z,13.76
2022-09-04T05:38:06.787Z,13.90
2022-09-04T05:41:05.004Z,14.03
2022-09-04T05:44:08.845Z,14.22
2022-09-04T05:47:21.978Z,14.42
2022-09-04T05:50:31.810Z,14.53
2022-09-04T05:53:42.863Z,14.74
2022-09-04T05:56:28.070Z,14.86
2022-09-04T05:59:19.330Z,14.98
2022-09-04T06:02:26.330Z,15.19
2022-09-04T06:05:28.140Z,15.43
2022-09-04T06:08:38.278Z,15.61
2022-09-04T06:11:54.575Z,15.77
2022-09-04T06:14:55.532Z,16.03
2022-09-04T06:18:28.429Z,16.35
2022-09-04T06:21:31.869Z,16.57
2022-09-04T06:24:55.828Z,16.75
2022-09-04T06:27:50.048Z,16.96
2022-09-04T06:30:49.499Z,16.99
2022-09-04T06:34:00.385Z,17.11
2022-09-04T06:37:11.225Z,17.06
2022-09-04T06:39:59.480Z,17.12
2022-09-04T06:42:50.270Z,17.20
2022-09-04T06:46:04.130Z,17.37
2022-09-04T06:48:59.713Z,17.28
2022-09-04T06:51:59.684Z,17.35
2022-09-04T06:55:02.437Z,17.66
2022-09-04T06:58:06.215Z,18.03
2022-09-04T07:00:55.165Z,18.32
2022-09-04T07:03:58.132Z,18.66
2022-09-04T07:06:43.254Z,18.91
2022-09-04T07:09:35.083Z,19.17
2022-09-04T07:12:37.995Z,19.19
2022-09-04T07:15:33.354Z,19.13
2022-09-04T07:18:48.054Z,19.27
2022-09-04T07:21:35.944Z,19.57
2022-09-04T07:24:39.338Z,19.82
2022-09-04T07:27:58.431Z,20.12
2022-09-04T07:31:08.510Z,20.48
2022-09-04T07:34:23.978Z,20.78
2022-09-04T07:37:08.991Z,20.92
2022-09-04T07:40:05.333Z,21.04
2022-09-04T07:43:12.739Z,21.04
2022-09-04T07:46:13.311Z,21.13
2022-09-04T07:49:26.602Z,21.31
2022-09-04T07:52:43.767Z,21.49
2022-09-04T07:55:40.609Z,21.90
2022-09-04T07:58:46.387Z,22.30
2022-09-04T08:01:40.336Z,22.60
2022-09-04T08:04:28.548Z,22.68
2022-09-04T08:08:03.220Z,22.72
2022-09-04T08:11:19.195Z,22.63
2022-09-04T08:14:07.627Z,22.55
2022-09-04T08:17:05.027Z,22.55
2022-09-04T08:20:12.188Z,22.89
2022-09-04T08:23:11.594Z,23.30
2022-09-04T08:26:14.086Z,22.79
2022-09-04T08:29:37.157Z,22.97
2022-09-04T08:32:47.186Z,23.40
2022-09-04T08:35:34.598Z,23.89
2022-09-04T08:38:25.915Z,24.49
2022-09-04T08:41:29.737Z,24.77
2022-09-04T08:44:36.639Z,24.95
2022-09-04T08:47:57.161Z,25.51
2022-09-04T08:50:51.104Z,26.05
2022-09-04T08:54:01.990Z,25.76
2022-09-04T08:56:47.857Z,25.04
2022-09-04T09:00:01.858Z,24.90
2022-09-04T09:02:56.134Z,25.50
2022-09-04T09:06:10.231Z,25.58
2022-09-04T09:09:14.408Z,25.69
2022-09-04T09:12:40.746Z,25.90
2022-09-04T09:15:45.243Z,24.89
2022-09-04T09:18:48.808Z,24.36
2022-09-04T09:21:48.789Z,23.44
2022-09-04T09:24:45.907Z,22.72
2022-09-04T09:27:58.751Z,22.15
2022-09-04T09:31:29.118Z,21.96
2022-09-04T09:34:44.524Z,22.12
2022-09-04T09:38:13.696Z,22.84
2022-09-04T09:41:52.842Z,22.91
2022-09-04T09:45:09.586Z,22.36
2022-09-04T09:48:13.420Z,22.03
2022-09-04T09:51:17.233Z,22.10
2022-09-04T09:54:16.148Z,22.13
2022-09-04T09:57:21.870Z,22.27
2022-09-04T10:00:22.293Z,22.41
2022-09-04T10:03:28.960Z,22.69
2022-09-04T10:06:38.975Z,23.05
2022-09-04T10:09:34.410Z,23.46
2022-09-04T10:12:46.139Z,23.72
2022-09-04T10:15:55.939Z,24.07
2022-09-04T10:18:56.574Z,24.33
2022-09-04T10:22:00.258Z,24.50
2022-09-04T10:25:23.585Z,24.54
2022-09-04T10:28:40.239Z,24.60
2022-09-04T10:31:57.784Z,24.82
2022-09-04T10:34:54.957Z,25.30
2022-09-04T10:38:13.920Z,25.30
2022-09-04T10:41:34.826Z,25.71
2022-09-04T10:44:42.486Z,25.23
2022-09-04T10:47:52.071Z,24.83
2022-09-04T10:51:07.699Z,24.43
2022-09-04T10:54:08.159Z,24.09
2022-09-04T10:57:09.249Z,24.15
2022-09-04T11:00:00.252Z,23.56
2022-09-04T11:03:15.874Z,23.48
2022-09-04T11:06:25.627Z,23.74
2022-09-04T11:09:19.614Z,23.98
2022-09-04T11:12:47.396Z,23.80
2022-09-04T11:15:47.041Z,23.52
2022-09-04T11:19:10.220Z,23.32
2022-09-04T11:22:36.592Z,23.22
2022-09-04T11:25:37.296Z,23.16
2022-09-04T11:28:35.600Z,23.28
2022-09-04T11:31:53.239Z,23.26
2022-09-04T11:34:56.935Z,23.29
2022-09-04T11:38:13.516Z,23.17
2022-09-04T11:41:15.403Z,23.10
2022-09-04T11:44:27.885Z,23.02
2022-09-04T11:47:34.829Z,23.08
2022-09-04T11:50:37.650Z,23.09
2022-09-04T11:53:51.948Z,23.16
2022-09-04T11:57:12.938Z,23.36
2022-09-04T12:00:13.580Z,23.75
2022-09-04T12:03:13.942Z,24.34
2022-09-04T12:06:11.774Z,25.82
2022-09-04T12:09:28.044Z,26.96
2022-09-04T12:12:21.966Z,27.32
2022-09-04T12:15:40.650Z,27.99
2022-09-04T12:18:32.975Z,28.82
2022-09-04T12:21:24.882Z,27.94
2022-09-04T12:24:14.902Z,27.25
2022-09-04T12:27:24.841Z,28.15
2022-09-04T12:30:23.171Z,30.30
2022-09-04T12:33:27.864Z,31.27
2022-09-04T12:36:32.996Z,31.25
2022-09-04T12:40:08.684Z,29.37
2022-09-04T12:43:00.193Z,28.49
2022-09-04T12:45:58.439Z,28.26
2022-09-04T12:49:31.361Z,28.70
2022-09-04T12:52:38.902Z,28.45
2022-09-04T12:55:42.008Z,29.32
2022-09-04T12:58:59.148Z,30.23
2022-09-04T13:02:16.262Z,30.94
2022-09-04T13:05:14.083Z,30.86
2022-09-04T13:08:25.822Z,30.87
2022-09-04T13:11:33.175Z,31.36
2022-09-04T13:14:27.047Z,32.22
2022-09-04T13:17:42.862Z,32.69
2022-09-04T13:20:41.018Z,33.21
2022-09-04T13:23:37.179Z,33.32
2022-09-04T13:26:59.086Z,33.22
2022-09-04T13:30:20.237Z,33.61
2022-09-04T13:33:11.662Z,33.61
2022-09-04T13:36:18.623Z,33.87
2022-09-04T13:39:06.805Z,34.06
2022-09-04T13:42:19.418Z,33.93
2022-09-04T13:45:26.421Z,33.02
2022-09-04T13:48:18.100Z,32.87
2022-09-04T13:51:13.499Z,32.94
2022-09-04T13:54:05.068Z,33.09
2022-09-04T13:57:15.115Z,32.49
2022-09-04T14:00:06.979Z,32.27
2022-09-04T14:03:00.268Z,31.96
2022-09-04T14:05:45.641Z,30.93
2022-09-04T14:08:34.288Z,30.64
2022-09-04T14:11:34.054Z,30.48
2022-09-04T14:14:32.763Z,31.18
2022-09-04T14:17:26.494Z,30.86
2022-09-04T14:20:22.620Z,31.17
2022-09-04T14:23:27.383Z,31.33
2022-09-04T14:26:18.888Z,31.61
2022-09-04T14:29:32.602Z,31.75
2022-09-04T14:32:34.548Z,31.01
2022-09-04T14:35:35.297Z,30.57
2022-09-04T14:38:29.751Z,30.46
2022-09-04T14:41:20.725Z,30.36
2022-09-04T14:44:53.808Z,29.45
2022-09-04T14:48:05.012Z,27.01
2022-09-04T14:50:53.129Z,25.08
2022-09-04T14:53:46.950Z,24.08
2022-09-04T14:56:44.590Z,23.34
2022-09-04T14:59:38.857Z,22.97
2022-09-04T15:02:48.997Z,22.58
2022-09-04T15:05:48.320Z,22.07
2022-09-04T15:08:40.845Z,21.64
2022-09-04T15:11:34.180Z,21.35
2022-09-04T15:14:32.400Z,21.25
2022-09-04T15:17:27.639Z,21.10
2022-09-04T15:20:22.148Z,20.79
2022-09-04T15:23:32.529Z,20.69
2022-09-04T15:26:25.524Z,22.27
2022-09-04T15:29:33.056Z,24.16
2022-09-04T15:32:25.622Z,25.44
2022-09-04T15:35:22.375Z,26.03
2022-09-04T15:38:20.462Z,26.56
2022-09-04T15:41:26.032Z,26.98
2022-09-04T15:44:33.662Z,27.20
2022-09-04T15:47:41.818Z,27.16
2022-09-04T15:50:32.045Z,27.06
2022-09-04T15:53:49.189Z,26.83
2022-09-04T15:56:53.194Z,26.63
2022-09-04T15:59:48.983Z,26.50
2022-09-04T16:02:53.917Z,26.34
2022-09-04T16:05:56.844Z,26.03
2022-09-04T16:08:54.407Z,25.72
2022-09-04T16:11:48.448Z,25.07
2022-09-04T16:14:48.183Z,24.11
2022-09-04T16:17:42.422Z,23.03
2022-09-04T16:20:52.299Z,21.68
2022-09-04T16:23:40.101Z,20.57
2022-09-04T16:26:32.774Z,19.61
2022-09-04T16:29:24.520Z,18.73
2022-09-04T16:32:19.654Z,17.88
2022-09-04T16:35:18.938Z,17.16
2022-09-04T16:38:25.648Z,16.57
2022-09-04T16:41:13.545Z,15.98
2022-09-04T16:44:14.279Z,15.55
2022-09-04T16:47:04.235Z,15.21
2022-09-04T16:49:58.940Z,14.89
2022-09-04T16:53:22.768Z,14.61
2022-09-04T16:56:40.201Z,14.39
2022-09-04T16:59:25.421Z,14.18
2022-09-04T17:02:23.172Z,14.00
2022-09-04T17:05:39.440Z,13.84
2022-09-04T17:08:42.807Z,13.69
2022-09-04T17:11:27.409Z,13.60
2022-09-04T17:14:39.685Z,13.51
2022-09-04T17:17:31.430Z,13.43
2022-09-04T17:21:18.429Z,13.35
2022-09-04T17:28:57.159Z,13.25
2022-09-04T17:29:16.209Z,13.14
2022-09-04T17:30:28.898Z,13.01
2022-09-04T17:40:34.605Z,12.89
2022-09-04T17:40:47.149Z,12.72
2022-09-04T17:40:50.971Z,12.59
2022-09-04T17:43:41.352Z,12.43
2022-09-04T17:46:57.870Z,12.33
2022-09-04T17:49:47.658Z,12.29
2022-09-04T17:52:59.495Z,12.22
2022-09-04T17:55:47.289Z,12.19
2022-09-04T17:58:39.951Z,12.08
2022-09-04T18:01:33.122Z,12.00
2022-09-04T18:04:34.339Z,11.97
2022-09-04T18:08:10.051Z,11.94
2022-09-04T18:10:48.987Z,11.89
2022-09-04T18:13:51.556Z,11.83
2022-09-04T18:16:38.968Z,11.74
2022-09-04T18:19:46.724Z,11.66
2022-09-04T18:22:59.375Z,11.55
2022-09-04T18:25:51.690Z,11.41
2022-09-04T18:28:47.311Z,11.28
2022-09-04T18:37:25.492Z,11.16
2022-09-04T18:37:27.099Z,11.11
2022-09-04T18:38:20.090Z,11.06
2022-09-04T18:49:00.336Z,10.97
2022-09-04T18:50:33.815Z,10.90
2022-09-04T18:50:34.794Z,10.94
2022-09-04T18:51:20.100Z,10.87
2022-09-04T18:54:11.723Z,10.82
2022-09-04T18:57:06.496Z,10.78
2022-09-04T19:00:09.513Z,10.71
2022-09-04T19:03:09.889Z,10.65
2022-09-04T19:06:04.726Z,10.61
2022-09-04T19:08:55.715Z,10.59
2022-09-04T19:12:07.644Z,10.58
2022-09-04T19:14:55.265Z,10.57
2022-09-04T19:17:42.033Z,10.57
2022-09-04T19:20:36.326Z,10.58
2022-09-04T19:23:53.052Z,10.63
2022-09-04T19:26:53.726Z,10.63
2022-09-04T19:30:18.857Z,10.56
2022-09-04T19:33:16.172Z,10.45
2022-09-04T19:36:08.827Z,10.40
2022-09-04T19:46:08.069Z,10.37
2022-09-04T19:46:16.093Z,10.37
2022-09-04T19:46:28.205Z,10.39
2022-09-04T19:52:30.384Z,10.38
2022-09-04T19:53:33.499Z,10.37
2022-09-04T19:55:45.932Z,10.36
2022-09-04T19:58:39.554Z,10.37
2022-09-04T20:01:49.912Z,10.39
2022-09-04T20:04:46.464Z,10.39
2022-09-04T20:07:46.801Z,10.42
2022-09-04T20:10:37.798Z,10.40
2022-09-04T20:13:48.219Z,10.40
2022-09-04T20:16:47.706Z,10.45
2022-09-04T20:19:40.856Z,10.43
2022-09-04T20:22:25.875Z,10.46
2022-09-04T20:25:16.739Z,10.45
2022-09-04T20:28:45.350Z,10.43
2022-09-04T20:31:44.682Z,10.40
2022-09-04T20:34:39.953Z,10.38
2022-09-04T20:37:31.285Z,10.37
2022-09-04T20:40:34.691Z,10.39
2022-09-04T20:43:19.387Z,10.40
2022-09-04T20:52:42.317Z,10.40
2022-09-04T20:52:52.601Z,10.39
2022-09-04T20:53:06.168Z,10.41
2022-09-04T20:55:58.676Z,10.44
2022-09-04T21:03:14.434Z,10.47
2022-09-04T21:03:17.612Z,10.48
2022-09-04T21:05:54.290Z,10.49
2022-09-04T21:09:02.409Z,10.50
2022-09-04T21:12:05.265Z,10.50
2022-09-04T21:14:57.953Z,10.51
2022-09-04T21:18:18.881Z,10.54
2022-09-04T21:21:23.971Z,10.59
2022-09-04T21:24:41.440Z,10.67
2022-09-04T21:27:52.275Z,10.72
2022-09-04T21:30:52.716Z,10.73
2022-09-04T21:33:49.598Z,10.72
2022-09-04T21:36:59.111Z,10.73
2022-09-04T21:40:50.796Z,10.76
2022-09-04T21:44:11.369Z,10.77
2022-09-04T21:47:08.388Z,10.83
2022-09-04T21:50:09.232Z,10.86
2022-09-04T21:53:19.463Z,10.88
2022-09-04T22:01:14.050Z,10.90
2022-09-04T22:02:35.357Z,10.91
2022-09-04T22:03:21.223Z,10.89
2022-09-04T22:07:36.267Z,10.90
2022-09-04T22:13:32.584Z,10.94
2022-09-04T22:13:39.072Z,11.02
2022-09-04T22:16:36.074Z,11.10
2022-09-04T22:19:45.773Z,11.14
2022-09-04T22:22:55.263Z,11.15
2022-09-04T22:25:47.622Z,11.17
2022-09-04T22:28:35.766Z,11.18
2022-09-04T22:31:21.833Z,11.21
2022-09-04T22:34:39.150Z,11.23
2022-09-04T22:37:29.903Z,11.25
2022-09-04T22:40:32.224Z,11.31
2022-09-04T22:43:25.435Z,11.35
2022-09-04T22:46:49.810Z,11.44
2022-09-04T22:50:16.464Z,11.50
2022-09-04T22:53:27.261Z,11.55
2022-09-04T22:56:24.421Z,11.54
2022-09-04T22:59:33.539Z,11.54
2022-09-04T23:09:07.367Z,11.47
2022-09-04T23:13:51.608Z,11.40
2022-09-04T23:13:58.766Z,11.35
2022-09-04T23:16:28.662Z,11.29
2022-09-04T23:23:07.697Z,11.27
2022-09-04T23:26:38.230Z,11.27
2022-09-04T23:26:53.270Z,11.29
2022-09-04T23:29:34.666Z,11.30
2022-09-04T23:32:26.448Z,11.30
2022-09-04T23:35:15.778Z,11.29
2022-09-04T23:38:38.951Z,11.30
2022-09-04T23:41:33.160Z,11.29
2022-09-04T23:44:49.349Z,11.30
2022-09-04T23:47:53.590Z,11.31
2022-09-04T23:50:46.518Z,11.30
2022-09-04T23:53:44.146Z,11.30
2022-09-04T23:56:42.953Z,11.29
2022-09-04T23:59:55.733Z,11.29
